Time;durP1;ratioP1;P1;durP2;ratioP2;P2;SDS_P1;SDS_P2;PMS_P1;PMS_P2;Temp;Humidity;BMP_temperature;BMP_pressure;BME280_temperature;BME280_humidity;BME280_pressure;Samples;Min_cycle;Max_cycle;Signal;HPM_P1;HPM_P2
2023/03/04 00:01:49;;;;;;;;;;;;;;;10.74;41.81;101095.31;4907313;28;98373;-67
2023/03/04 00:04:16;;;;;;;;;;;;;;;10.73;41.43;101099.09;4910396;28;98529;-67
2023/03/04 00:06:42;;;;;;;;;;;;;;;10.73;41.82;101101.78;4938474;28;100416;-67
2023/03/04 00:09:08;;;;;;;;;;;;;;;10.73;41.64;101102.59;4920937;28;98121;-68
2023/03/04 00:11:34;;;;;;;;;;;;;;;10.72;41.38;101094.75;4905238;28;99461;-68
2023/03/04 00:14:01;;;;;;;;;;;;;;;10.71;41.34;101091.22;4937818;28;99494;-68
2023/03/04 00:16:27;;;;;;;;;;;;;;;10.72;41.81;101092.03;4934166;28;98200;-69
2023/03/04 00:18:56;;;;;;;;;;;;;;;10.72;41.76;101094.75;4907800;28;98445;-69
2023/03/04 00:21:22;;;;;;;;;;;;;;;10.72;41.79;101086.66;4908204;28;98046;-68
2023/03/04 00:23:49;;;;;;;;;;;;;;;10.71;42.07;101080.44;4906480;28;98891;-68
2023/03/04 00:26:15;;;;;;;;;;;;;;;10.71;41.58;101077.75;4905741;28;98358;-68
2023/03/04 00:28:42;;;;;;;;;;;;;;;10.69;41.77;101071.81;4909101;28;98117;-68
2023/03/04 00:31:08;;;;;;;;;;;;;;;10.69;41.34;101068.28;4907409;28;97982;-69
2023/03/04 00:33:34;;;;;;;;;;;;;;;10.69;41.28;101068.28;4920303;28;98165;-67
2023/03/04 00:36:00;;;;;;;;;;;;;;;10.68;41.97;101058.56;4907220;28;98820;-67
2023/03/04 00:38:26;;;;;;;;;;;;;;;10.68;41.69;101058.56;4922071;28;97937;-67
2023/03/04 00:40:53;;;;;;;;;;;;;;;10.67;41.43;101068.53;4908578;28;98077;-68
2023/03/04 00:43:19;;;;;;;;;;;;;;;10.67;42.10;101063.16;4920683;28;98094;-68
2023/03/04 00:45:46;;;;;;;;;;;;;;;10.67;41.76;101060.44;4904776;28;100027;-67
2023/03/04 00:48:12;;;;;;;;;;;;;;;10.67;41.37;101054.25;4906268;28;97996;-67
2023/03/04 00:50:38;;;;;;;;;;;;;;;10.66;41.71;101056.13;4918651;28;98069;-67
2023/03/04 00:53:04;;;;;;;;;;;;;;;10.66;41.43;101052.63;4908177;28;98292;-68
2023/03/04 00:55:31;;;;;;;;;;;;;;;10.66;41.96;101058.03;4908088;28;97930;-68
2023/03/04 00:57:57;;;;;;;;;;;;;;;10.64;41.72;101058.25;4910576;28;98068;-67
2023/03/04 01:00:23;;;;;;;;;;;;;;;10.65;41.63;101050.97;4911290;28;99897;-68
2023/03/04 01:02:49;;;;;;;;;;;;;;;10.65;41.88;101043.72;4922897;28;98056;-68
2023/03/04 01:05:15;;;;;;;;;;;;;;;10.65;41.73;101032.09;4907370;28;99053;-68
2023/03/04 01:07:42;;;;;;;;;;;;;;;10.63;41.80;101026.97;4919615;28;98065;-68
2023/03/04 01:10:09;;;;;;;;;;;;;;;10.63;41.80;101029.69;4923634;28;98685;-67
2023/03/04 01:12:35;;;;;;;;;;;;;;;10.62;41.90;101025.34;4898449;28;98346;-67
2023/03/04 01:15:02;;;;;;;;;;;;;;;10.62;41.66;101011.06;4902669;28;98241;-68
2023/03/04 01:17:28;;;;;;;;;;;;;;;10.61;42.11;101012.13;4898520;28;100629;-67
2023/03/04 01:19:54;;;;;;;;;;;;;;;10.60;41.81;101016.69;4887537;28;99066;-67
2023/03/04 01:22:21;;;;;;;;;;;;;;;10.60;41.98;101000.53;4892785;28;98116;-67
2023/03/04 01:24:47;;;;;;;;;;;;;;;10.59;41.76;100998.09;4893100;28;98470;-67
2023/03/04 01:27:14;;;;;;;;;;;;;;;10.59;41.29;101001.59;4901829;28;98503;-68
2023/03/04 01:29:40;;;;;;;;;;;;;;;10.58;41.83;100997.28;4893998;28;98290;-68
2023/03/04 01:32:06;;;;;;;;;;;;;;;10.57;41.99;100987.53;4905755;28;98396;-67
2023/03/04 01:34:33;;;;;;;;;;;;;;;10.57;41.38;100982.16;4889169;28;98223;-68
2023/03/04 01:36:59;;;;;;;;;;;;;;;10.57;41.68;100991.09;4922388;28;99597;-69
2023/03/04 01:39:26;;;;;;;;;;;;;;;10.57;42.13;100992.94;4924607;28;98306;-67
2023/03/04 01:41:52;;;;;;;;;;;;;;;10.56;42.14;100986.72;4887122;28;98593;-68
2023/03/04 01:44:18;;;;;;;;;;;;;;;10.56;41.41;100986.72;4891063;28;99566;-68
2023/03/04 01:46:48;;;;;;;;;;;;;;;10.55;41.38;100970.81;4892213;28;99657;-67
2023/03/04 01:49:15;;;;;;;;;;;;;;;10.56;41.70;100978.66;4906976;28;97940;-68
2023/03/04 01:51:51;;;;;;;;;;;;;;;10.55;41.60;100976.22;4893420;28;98683;-67
2023/03/04 01:54:17;;;;;;;;;;;;;;;10.53;41.77;100968.41;4892760;28;98197;-67
2023/03/04 01:56:44;;;;;;;;;;;;;;;10.55;42.06;100968.13;4884143;28;99884;-67
2023/03/04 01:59:15;;;;;;;;;;;;;;;10.54;41.55;100967.31;4888738;28;98313;-68
2023/03/04 02:01:45;;;;;;;;;;;;;;;10.53;41.74;100970.25;4904561;28;98154;-68
2023/03/04 02:04:12;;;;;;;;;;;;;;;10.52;41.41;100958.66;4888724;28;98404;-68
2023/03/04 02:06:39;;;;;;;;;;;;;;;10.53;41.74;100960.31;4906812;28;99556;-68
2023/03/04 02:09:05;;;;;;;;;;;;;;;10.53;41.74;100954.06;4907011;28;98060;-66
2023/03/04 02:11:32;;;;;;;;;;;;;;;10.52;42.09;100964.06;4888939;28;98013;-68
2023/03/04 02:13:58;;;;;;;;;;;;;;;10.53;41.61;100948.69;4888985;28;98007;-67
2023/03/04 02:16:27;;;;;;;;;;;;;;;10.51;41.69;100948.94;4936280;28;119154;-67
2023/03/04 02:18:53;;;;;;;;;;;;;;;10.52;41.85;100947.06;4894627;28;98019;-68
2023/03/04 02:21:27;;;;;;;;;;;;;;;10.53;41.62;100951.38;4891292;28;98229;-67
2023/03/04 02:24:19;;;;;;;;;;;;;;;10.52;41.52;100947.88;4925537;28;98036;-68
2023/03/04 02:26:46;;;;;;;;;;;;;;;10.51;42.01;100934.66;4901360;28;98996;-66
2023/03/04 02:29:13;;;;;;;;;;;;;;;10.52;41.58;100933.59;4907864;28;98872;-67
2023/03/04 02:31:41;;;;;;;;;;;;;;;10.52;41.73;100930.91;4896289;28;99865;-68
2023/03/04 02:34:13;;;;;;;;;;;;;;;10.50;41.46;100933.84;4907985;28;98617;-66
2023/03/04 02:36:40;;;;;;;;;;;;;;;10.51;42.31;100940.06;4900836;28;99750;-68
2023/03/04 02:39:19;;;;;;;;;;;;;;;10.51;41.45;100937.38;4904456;28;98292;-67
2023/03/04 02:41:46;;;;;;;;;;;;;;;10.51;42.10;100924.69;4901703;28;98320;-67
2023/03/04 02:44:19;;;;;;;;;;;;;;;10.50;41.54;100919.56;4918953;28;98148;-68
2023/03/04 02:46:45;;;;;;;;;;;;;;;10.50;41.65;100924.97;4902468;28;98316;-69
2023/03/04 02:49:12;;;;;;;;;;;;;;;10.51;41.87;100926.59;4906773;28;100258;-68
2023/03/04 02:51:38;;;;;;;;;;;;;;;10.50;41.42;100917.69;4907007;28;98004;-66
2023/03/04 02:54:04;;;;;;;;;;;;;;;10.51;41.53;100926.59;4907528;28;99887;-68
2023/03/04 02:56:30;;;;;;;;;;;;;;;10.49;41.68;100917.94;4891487;28;98030;-67
2023/03/04 02:58:57;;;;;;;;;;;;;;;10.50;42.04;100925.78;4890670;28;99383;-68
2023/03/04 03:01:26;;;;;;;;;;;;;;;10.51;42.10;100919.31;4891886;28;98070;-67
2023/03/04 03:03:53;;;;;;;;;;;;;;;10.50;41.43;100914.19;4904856;28;100046;-67
2023/03/04 03:06:20;;;;;;;;;;;;;;;10.50;41.73;100909.59;4905858;28;98121;-67
2023/03/04 03:08:46;;;;;;;;;;;;;;;10.49;41.70;100907.13;4922860;28;99209;-67
2023/03/04 03:11:13;;;;;;;;;;;;;;;10.49;41.63;100902.59;4920813;28;98304;-67
2023/03/04 03:13:39;;;;;;;;;;;;;;;10.50;41.54;100903.41;4901866;28;98330;-67
2023/03/04 03:16:06;;;;;;;;;;;;;;;10.49;42.09;100905.28;4898999;28;99098;-67
2023/03/04 03:18:32;;;;;;;;;;;;;;;10.49;41.38;100897.19;4905495;28;98253;-68
2023/03/04 03:20:58;;;;;;;;;;;;;;;10.49;42.02;100896.34;4901791;28;97936;-69
2023/03/04 03:23:25;;;;;;;;;;;;;;;10.50;42.08;100903.41;4924158;28;101931;-68
2023/03/04 03:25:51;;;;;;;;;;;;;;;10.49;41.80;100905.28;4918991;28;99056;-68
2023/03/04 03:28:17;;;;;;;;;;;;;;;10.50;41.67;100906.09;4909436;28;100031;-67
2023/03/04 03:30:43;;;;;;;;;;;;;;;10.48;41.82;100914.41;4893560;28;99406;-67
2023/03/04 03:33:09;;;;;;;;;;;;;;;10.49;41.73;100909.84;4904758;28;98069;-67
2023/03/04 03:35:36;;;;;;;;;;;;;;;10.48;41.67;100906.34;4891832;28;98188;-67
2023/03/04 03:38:02;;;;;;;;;;;;;;;10.48;41.80;100910.91;4906189;28;98204;-67
2023/03/04 03:40:28;;;;;;;;;;;;;;;10.48;41.49;100906.34;4883475;28;98310;-67
2023/03/04 03:42:54;;;;;;;;;;;;;;;10.48;41.86;100894.75;4883466;28;98378;-66
2023/03/04 03:45:21;;;;;;;;;;;;;;;10.48;41.82;100892.03;4913137;28;98836;-66
2023/03/04 03:47:47;;;;;;;;;;;;;;;10.47;41.96;100898.50;4901634;28;98734;-67
2023/03/04 03:50:13;;;;;;;;;;;;;;;10.47;41.90;100903.91;4904118;28;97957;-66
2023/03/04 03:52:39;;;;;;;;;;;;;;;10.47;41.79;100901.22;4889886;28;98409;-68
2023/03/04 03:55:05;;;;;;;;;;;;;;;10.46;41.53;100903.09;4888323;28;98448;-68
2023/03/04 03:57:32;;;;;;;;;;;;;;;10.47;41.79;100906.59;4911345;28;98093;-69
2023/03/04 04:00:02;;;;;;;;;;;;;;;10.48;42.02;100908.22;4892236;28;98042;-67
2023/03/04 04:02:29;;;;;;;;;;;;;;;10.47;42.12;100901.22;4904125;28;99184;-67
2023/03/04 04:04:55;;;;;;;;;;;;;;;10.48;42.02;100910.91;4894365;28;99088;-67
2023/03/04 04:07:21;;;;;;;;;;;;;;;10.47;42.05;100907.41;4903867;28;98328;-68
2023/03/04 04:09:47;;;;;;;;;;;;;;;10.47;41.92;100903.91;4904697;28;98151;-68
2023/03/04 04:12:16;;;;;;;;;;;;;;;10.47;41.86;100902.03;4895051;28;98431;-67
2023/03/04 04:14:42;;;;;;;;;;;;;;;10.47;41.78;100909.28;4906599;28;99611;-68
2023/03/04 04:17:09;;;;;;;;;;;;;;;10.48;42.06;100916.31;4927204;28;99670;-68
2023/03/04 04:19:35;;;;;;;;;;;;;;;10.47;41.44;100910.09;4929032;28;99628;-68
2023/03/04 04:22:02;;;;;;;;;;;;;;;10.47;42.18;100901.22;4907981;28;98260;-67
2023/03/04 04:24:28;;;;;;;;;;;;;;;10.47;41.79;100906.59;4910466;28;97880;-66
2023/03/04 04:26:54;;;;;;;;;;;;;;;10.46;42.05;100911.19;4906969;28;98429;-67
2023/03/04 04:29:22;;;;;;;;;;;;;;;10.47;41.80;100907.41;4908597;28;99239;-68
2023/03/04 04:31:48;;;;;;;;;;;;;;;10.46;41.52;100902.28;4909979;28;98408;-68
2023/03/04 04:34:14;;;;;;;;;;;;;;;10.46;41.48;100903.09;4909384;28;99129;-67
2023/03/04 04:36:40;;;;;;;;;;;;;;;10.46;41.69;100891.50;4920701;28;98038;-68
2023/03/04 04:39:07;;;;;;;;;;;;;;;10.47;41.51;100898.50;4903033;28;98244;-67
2023/03/04 04:41:37;;;;;;;;;;;;;;;10.46;42.00;100886.94;4905332;28;98445;-68
2023/03/04 04:44:04;;;;;;;;;;;;;;;10.47;41.68;100887.72;4910126;28;98045;-68
2023/03/04 04:46:30;;;;;;;;;;;;;;;10.46;41.77;100878.03;4926958;28;98096;-68
2023/03/04 04:48:56;;;;;;;;;;;;;;;10.46;41.76;100881.53;4911324;28;98676;-67
2023/03/04 04:51:23;;;;;;;;;;;;;;;10.46;41.40;100872.63;4944977;28;98126;-67
2023/03/04 04:53:49;;;;;;;;;;;;;;;10.46;41.50;100869.94;4907438;28;100200;-66
2023/03/04 04:56:17;;;;;;;;;;;;;;;10.45;41.48;100871.84;4923507;28;99494;-68
2023/03/04 04:58:43;;;;;;;;;;;;;;;10.46;42.17;100868.06;4924723;28;98213;-67
2023/03/04 05:01:09;;;;;;;;;;;;;;;10.46;41.57;100878.84;4923225;28;98888;-68
2023/03/04 05:03:36;;;;;;;;;;;;;;;10.47;42.12;100868.88;4929078;28;98212;-68
2023/03/04 05:06:02;;;;;;;;;;;;;;;10.46;41.92;100869.94;4923348;28;98075;-67
2023/03/04 05:08:28;;;;;;;;;;;;;;;10.47;41.45;100868.88;4935451;28;99232;-67
2023/03/04 05:10:54;;;;;;;;;;;;;;;10.46;41.73;100853.78;4908795;28;98671;-67
2023/03/04 05:13:21;;;;;;;;;;;;;;;10.46;41.95;100864.56;4912677;28;98265;-67
2023/03/04 05:15:49;;;;;;;;;;;;;;;10.46;41.79;100853.78;4908869;28;97953;-67
2023/03/04 05:18:15;;;;;;;;;;;;;;;10.46;41.67;100851.06;4918821;28;99354;-68
2023/03/04 05:20:41;;;;;;;;;;;;;;;10.47;41.43;100855.38;4911356;28;100077;-66
2023/03/04 05:23:07;;;;;;;;;;;;;;;10.47;42.14;100858.09;4906818;28;127837;-68
2023/03/04 05:25:34;;;;;;;;;;;;;;;10.47;42.10;100853.50;4923468;28;97947;-69
2023/03/04 05:28:01;;;;;;;;;;;;;;;10.47;41.95;100848.13;4933640;28;100238;-67
2023/03/04 05:30:27;;;;;;;;;;;;;;;10.48;41.67;100843.53;4921628;28;99798;-67
2023/03/04 05:32:53;;;;;;;;;;;;;;;10.48;41.96;100836.25;4908189;28;98097;-68
2023/03/04 05:35:19;;;;;;;;;;;;;;;10.49;41.80;100842.44;4919453;28;98142;-68
2023/03/04 05:37:46;;;;;;;;;;;;;;;10.49;42.10;100829.81;4914223;28;98120;-67
2023/03/04 05:40:12;;;;;;;;;;;;;;;10.51;41.54;100840.31;4906697;28;98178;-69
2023/03/04 05:42:38;;;;;;;;;;;;;;;10.50;42.11;100836.81;4910048;28;98297;-68
2023/03/04 05:45:05;;;;;;;;;;;;;;;10.51;42.10;100843.84;4908038;28;99483;-68
2023/03/04 05:47:32;;;;;;;;;;;;;;;10.51;41.71;100832.25;4909901;28;98251;-69
2023/03/04 05:49:58;;;;;;;;;;;;;;;10.51;41.94;100830.34;4913113;28;97992;-67
2023/03/04 05:52:24;;;;;;;;;;;;;;;10.52;41.86;100823.88;4921661;28;99285;-68
2023/03/04 05:54:51;;;;;;;;;;;;;;;10.53;41.47;100840.88;4908348;28;99356;-69
2023/03/04 05:57:17;;;;;;;;;;;;;;;10.53;42.21;100841.72;4908747;28;97993;-69
2023/03/04 05:59:43;;;;;;;;;;;;;;;10.53;41.94;100828.22;4905193;28;98359;-67
2023/03/04 06:02:10;;;;;;;;;;;;;;;10.54;41.77;100827.16;4906978;28;100079;-68
2023/03/04 06:04:36;;;;;;;;;;;;;;;10.56;42.14;100825.00;4921020;28;99402;-69
2023/03/04 06:07:02;;;;;;;;;;;;;;;10.57;41.76;100828.50;4923701;28;98267;-69
2023/03/04 06:09:29;;;;;;;;;;;;;;;10.57;41.76;100834.72;4924152;28;98065;-66
2023/03/04 06:11:55;;;;;;;;;;;;;;;10.59;41.80;100837.16;4923806;28;99471;-68
2023/03/04 06:14:22;;;;;;;;;;;;;;;10.60;41.78;100835.25;4908626;28;98836;-67
2023/03/04 06:16:48;;;;;;;;;;;;;;;10.60;41.46;100828.00;4906950;28;98253;-68
2023/03/04 06:19:14;;;;;;;;;;;;;;;10.62;41.83;100833.94;4907609;28;98093;-67
2023/03/04 06:21:41;;;;;;;;;;;;;;;10.63;41.42;100826.66;4903060;28;101985;-67
2023/03/04 06:24:07;;;;;;;;;;;;;;;10.64;41.73;100839.06;4921736;28;98076;-67
2023/03/04 06:26:33;;;;;;;;;;;;;;;10.65;41.72;100832.59;4907103;28;98229;-68
2023/03/04 06:29:02;;;;;;;;;;;;;;;10.66;41.61;100839.63;4902586;28;97941;-69
2023/03/04 06:31:28;;;;;;;;;;;;;;;10.67;42.02;100836.66;4920062;28;98603;-70
2023/03/04 06:33:54;;;;;;;;;;;;;;;10.69;41.48;100844.50;4919405;28;98069;-69
2023/03/04 06:36:21;;;;;;;;;;;;;;;10.71;41.86;100839.66;4903587;28;98252;-67
2023/03/04 06:38:47;;;;;;;;;;;;;;;10.72;41.43;100838.59;4919465;28;98193;-68
2023/03/04 06:41:13;;;;;;;;;;;;;;;10.73;41.77;100832.16;4931574;28;98367;-68
2023/03/04 06:43:40;;;;;;;;;;;;;;;10.75;41.54;100838.06;4896281;28;98361;-69
2023/03/04 06:46:06;;;;;;;;;;;;;;;10.75;41.73;100836.19;4905759;28;100184;-69
2023/03/04 06:48:33;;;;;;;;;;;;;;;10.78;41.68;100840.25;4905695;28;98074;-68
2023/03/04 06:51:05;;;;;;;;;;;;;;;10.79;41.85;100834.59;4905371;28;98955;-68
2023/03/04 06:53:31;;;;;;;;;;;;;;;10.81;41.31;100834.34;4904367;28;98180;-67
2023/03/04 06:55:58;;;;;;;;;;;;;;;10.84;41.73;100827.59;4903440;28;99770;-68
2023/03/04 06:58:24;;;;;;;;;;;;;;;10.87;41.76;100841.38;4904213;28;98457;-67
2023/03/04 07:00:50;;;;;;;;;;;;;;;10.90;41.79;100826.59;4901297;28;99548;-67
2023/03/04 07:03:17;;;;;;;;;;;;;;;10.92;41.24;100829.81;4903692;28;98160;-67
2023/03/04 07:05:43;;;;;;;;;;;;;;;10.94;41.48;100833.09;4900676;28;98413;-68
2023/03/04 07:08:10;;;;;;;;;;;;;;;10.97;42.02;100835.25;4920901;28;98393;-68
2023/03/04 07:10:36;;;;;;;;;;;;;;;10.99;41.78;100836.59;4919090;28;97930;-69
2023/03/04 07:13:02;;;;;;;;;;;;;;;11.00;41.68;100834.72;4905437;28;98172;-68
2023/03/04 07:15:28;;;;;;;;;;;;;;;11.00;41.93;100830.16;4902286;28;98520;-68
2023/03/04 07:17:54;;;;;;;;;;;;;;;11.01;41.49;100839.06;4918919;28;98863;-69
2023/03/04 07:20:20;;;;;;;;;;;;;;;11.05;41.72;100832.06;4905941;28;98394;-67
2023/03/04 07:22:47;;;;;;;;;;;;;;;11.09;41.52;100832.38;4903641;28;97957;-67
2023/03/04 07:25:13;;;;;;;;;;;;;;;11.13;41.76;100822.66;4904955;28;98334;-67
2023/03/04 07:27:39;;;;;;;;;;;;;;;11.20;41.66;100825.91;4902225;28;100071;-68
2023/03/04 07:30:07;;;;;;;;;;;;;;;11.24;41.64;100827.03;4918888;28;98318;-67
2023/03/04 07:32:34;;;;;;;;;;;;;;;11.27;41.48;100823.78;4907718;28;98013;-68
2023/03/04 07:35:02;;;;;;;;;;;;;;;11.29;41.42;100827.88;4906244;28;99820;-67
2023/03/04 07:37:28;;;;;;;;;;;;;;;11.29;41.73;100827.88;4905683;28;98285;-67
2023/03/04 07:39:55;;;;;;;;;;;;;;;11.31;41.37;100825.69;4904889;28;98272;-67
2023/03/04 07:42:21;;;;;;;;;;;;;;;11.35;41.77;100825.19;4905476;28;98460;-69
2023/03/04 07:44:47;;;;;;;;;;;;;;;11.37;41.61;100833.84;4916680;28;100684;-67
2023/03/04 07:47:13;;;;;;;;;;;;;;;11.41;41.75;100835.75;4903694;28;98233;-69
2023/03/04 07:49:39;;;;;;;;;;;;;;;11.44;41.43;100829.03;4910299;28;98199;-69
2023/03/04 07:52:06;;;;;;;;;;;;;;;11.50;41.31;100830.66;4918627;28;98279;-68
2023/03/04 07:54:33;;;;;;;;;;;;;;;11.51;41.34;100835.78;4909238;28;99599;-69
2023/03/04 07:56:59;;;;;;;;;;;;;;;11.55;41.60;100827.94;4905009;28;98147;-69
2023/03/04 07:59:25;;;;;;;;;;;;;;;11.61;41.49;100824.22;4904684;28;100905;-69
2023/03/04 08:01:52;;;;;;;;;;;;;;;11.63;41.43;100824.78;4919504;28;98629;-68
2023/03/04 08:04:18;;;;;;;;;;;;;;;11.65;41.45;100822.59;4915256;28;98326;-69
2023/03/04 08:06:44;;;;;;;;;;;;;;;11.70;41.53;100830.72;4902833;28;98195;-68
2023/03/04 08:09:12;;;;;;;;;;;;;;;11.75;41.42;100821.81;4907327;28;98022;-69
2023/03/04 08:11:38;;;;;;;;;;;;;;;11.79;41.29;100822.91;4932948;28;98282;-68
2023/03/04 08:14:05;;;;;;;;;;;;;;;11.82;41.31;100822.38;4936927;28;98339;-68
2023/03/04 08:16:31;;;;;;;;;;;;;;;11.89;41.33;100816.75;4919144;28;98321;-67
2023/03/04 08:18:59;;;;;;;;;;;;;;;11.94;41.42;100827.56;4902761;28;98344;-68
2023/03/04 08:21:26;;;;;;;;;;;;;;;11.97;41.52;100819.72;4903830;28;98095;-67
2023/03/04 08:23:53;;;;;;;;;;;;;;;12.03;41.27;100821.38;4905189;28;98044;-68
2023/03/04 08:26:24;;;;;;;;;;;;;;;12.09;41.26;100821.38;4921373;28;98863;-68
2023/03/04 08:28:51;;;;;;;;;;;;;;;12.12;41.39;100820.84;4915332;28;98487;-68
2023/03/04 08:31:17;;;;;;;;;;;;;;;12.20;41.14;100823.00;4932913;28;98128;-67
2023/03/04 08:33:43;;;;;;;;;;;;;;;12.22;41.34;100820.81;4920931;28;97929;-68
2023/03/04 08:36:10;;;;;;;;;;;;;;;12.26;41.34;100820.03;4918321;28;98094;-67
2023/03/04 08:38:37;;;;;;;;;;;;;;;12.34;41.29;100802.47;4922886;28;97966;-69
2023/03/04 08:41:03;;;;;;;;;;;;;;;12.42;41.01;100809.22;4904154;28;99557;-67
2023/03/04 08:43:29;;;;;;;;;;;;;;;12.47;41.19;100810.03;4918007;28;98242;-66
2023/03/04 08:45:55;;;;;;;;;;;;;;;12.58;41.10;100807.31;4904906;28;100818;-68
2023/03/04 08:48:22;;;;;;;;;;;;;;;12.62;41.24;100803.81;4906610;28;98259;-67
2023/03/04 08:50:51;;;;;;;;;;;;;;;12.75;41.20;100799.72;4916703;28;98010;-67
2023/03/04 08:53:17;;;;;;;;;;;;;;;12.90;40.89;100798.88;4901318;28;98373;-67
2023/03/04 08:55:43;;;;;;;;;;;;;;;12.96;41.17;100800.47;4903146;28;98229;-68
2023/03/04 08:58:10;;;;;;;;;;;;;;;13.03;40.96;100801.00;4906573;28;98168;-68
2023/03/04 09:00:38;;;;;;;;;;;;;;;13.06;41.09;100803.16;4903257;28;98005;-69
2023/03/04 09:03:04;;;;;;;;;;;;;;;13.02;41.22;100799.38;4903731;28;98101;-68
2023/03/04 09:05:31;;;;;;;;;;;;;;;12.98;41.28;100806.44;4904944;28;98094;-68
2023/03/04 09:07:57;;;;;;;;;;;;;;;12.97;41.40;100802.13;4935723;28;98230;-69
2023/03/04 09:10:23;;;;;;;;;;;;;;;12.95;41.08;100807.78;4920061;28;99255;-69
2023/03/04 09:12:50;;;;;;;;;;;;;;;13.00;41.18;100801.53;4916966;28;98974;-67
2023/03/04 09:15:16;;;;;;;;;;;;;;;12.95;41.22;100807.78;4906603;28;98150;-68
2023/03/04 09:17:43;;;;;;;;;;;;;;;12.92;41.46;100800.22;4907204;28;100798;-67
2023/03/04 09:20:10;;;;;;;;;;;;;;;12.96;41.20;100803.97;4921173;28;100289;-67
2023/03/04 09:22:37;;;;;;;;;;;;;;;13.00;41.07;100804.25;4909364;28;98984;-67
2023/03/04 09:25:04;;;;;;;;;;;;;;;13.01;41.18;100795.06;4906664;28;98185;-68
2023/03/04 09:27:30;;;;;;;;;;;;;;;12.98;41.39;100795.59;4920172;28;99980;-67
2023/03/04 09:29:56;;;;;;;;;;;;;;;13.01;41.22;100798.56;4935628;28;97779;-67
2023/03/04 09:32:23;;;;;;;;;;;;;;;13.05;41.17;100798.84;4910294;28;98486;-67
2023/03/04 09:34:49;;;;;;;;;;;;;;;13.18;41.30;100794.72;4907044;28;98368;-66
2023/03/04 09:37:15;;;;;;;;;;;;;;;13.16;41.21;100795.00;4905650;28;98495;-66
2023/03/04 09:39:42;;;;;;;;;;;;;;;13.18;41.23;100786.59;4917792;28;97970;-68
2023/03/04 09:42:09;;;;;;;;;;;;;;;13.23;41.39;100781.19;4936906;28;98170;-66
2023/03/04 09:44:41;;;;;;;;;;;;;;;13.37;41.00;100784.13;4928090;28;99916;-66
2023/03/04 09:47:14;;;;;;;;;;;;;;;13.40;41.20;100778.13;4910503;28;97993;-67
2023/03/04 09:49:41;;;;;;;;;;;;;;;13.61;40.92;100779.66;4907496;28;98183;-68
2023/03/04 09:52:25;;;;;;;;;;;;;;;13.84;40.62;100778.16;4921325;28;98117;-67
2023/03/04 09:55:24;;;;;;;;;;;;;;;14.10;40.76;100770.63;4954477;28;98845;-68
2023/03/04 09:58:43;;;;;;;;;;;;;;;14.72;40.08;100763.59;4942844;28;100161;-68
2023/03/04 10:01:21;;;;;;;;;;;;;;;14.53;40.30;100762.69;4878635;28;98529;-69
2023/03/04 10:03:53;;;;;;;;;;;;;;;14.47;40.73;100767.34;4934454;28;98916;-69
2023/03/04 10:06:20;;;;;;;;;;;;;;;14.28;41.10;100763.72;4934444;28;98618;-69
2023/03/04 10:08:51;;;;;;;;;;;;;;;14.28;40.95;100761.00;4907051;28;100102;-67
2023/03/04 10:11:44;;;;;;;;;;;;;;;14.16;41.10;100766.81;4920487;28;99245;-67
2023/03/04 10:14:22;;;;;;;;;;;;;;;14.06;41.22;100760.66;4909896;28;99383;-66
2023/03/04 10:17:04;;;;;;;;;;;;;;;14.33;40.69;100757.44;4934106;28;99183;-68
2023/03/04 10:19:55;;;;;;;;;;;;;;;14.54;40.60;100750.78;4938957;28;98561;-67
2023/03/04 10:22:36;;;;;;;;;;;;;;;14.45;40.58;100747.81;4924341;28;99704;-67
2023/03/04 10:25:20;;;;;;;;;;;;;;;14.38;40.84;100751.97;4908047;28;98452;-69
2023/03/04 10:28:12;;;;;;;;;;;;;;;14.38;40.91;100755.50;4905876;28;98749;-68
2023/03/04 10:30:45;;;;;;;;;;;;;;;14.31;40.90;100757.75;4922279;28;98156;-68
2023/03/04 10:33:13;;;;;;;;;;;;;;;14.20;41.07;100754.31;4921879;28;98267;-67
2023/03/04 10:35:39;;;;;;;;;;;;;;;14.13;41.35;100748.41;4907943;28;98097;-69
2023/03/04 10:38:06;;;;;;;;;;;;;;;14.11;41.27;100749.75;4922161;28;99500;-67
2023/03/04 10:40:37;;;;;;;;;;;;;;;14.05;41.19;100753.63;4902472;28;98202;-67
2023/03/04 10:43:06;;;;;;;;;;;;;;;13.98;41.20;100754.75;4907421;28;98068;-68
2023/03/04 10:45:37;;;;;;;;;;;;;;;14.05;41.36;100745.50;4921642;28;98186;-68
2023/03/04 10:48:03;;;;;;;;;;;;;;;14.11;41.00;100742.47;4917296;28;98097;-67
2023/03/04 10:50:29;;;;;;;;;;;;;;;14.25;41.16;100740.69;4905538;28;100311;-68
2023/03/04 10:52:55;;;;;;;;;;;;;;;14.39;40.79;100749.00;4905734;28;99792;-68
2023/03/04 10:55:28;;;;;;;;;;;;;;;14.47;41.05;100739.44;4917057;28;98101;-69
2023/03/04 10:57:55;;;;;;;;;;;;;;;15.26;40.22;100730.94;4916932;28;100132;-68
2023/03/04 11:00:30;;;;;;;;;;;;;;;15.47;40.04;100726.84;4901297;28;102466;-67
2023/03/04 11:03:21;;;;;;;;;;;;;;;15.43;39.98;100733.94;4906188;28;98142;-67
2023/03/04 11:05:47;;;;;;;;;;;;;;;15.38;40.51;100732.13;4921640;28;98407;-67
2023/03/04 11:08:21;;;;;;;;;;;;;;;15.36;40.70;100723.44;4916704;28;98516;-67
2023/03/04 11:10:49;;;;;;;;;;;;;;;15.44;40.38;100722.81;4905366;28;100005;-67
2023/03/04 11:13:17;;;;;;;;;;;;;;;15.39;40.92;100724.78;4905401;28;98458;-67
2023/03/04 11:15:56;;;;;;;;;;;;;;;15.30;40.69;100718.41;4936259;28;98598;-68
2023/03/04 11:18:35;;;;;;;;;;;;;;;15.43;40.81;100725.81;4921564;28;98404;-69
2023/03/04 11:21:02;;;;;;;;;;;;;;;15.65;40.56;100720.63;4936767;28;98308;-68
2023/03/04 11:23:42;;;;;;;;;;;;;;;15.64;40.59;100726.31;4904653;28;99238;-69
2023/03/04 11:26:13;;;;;;;;;;;;;;;15.52;40.72;100720.50;4923133;28;98285;-69
2023/03/04 11:28:46;;;;;;;;;;;;;;;15.61;40.56;100713.34;4903823;28;100568;-68
2023/03/04 11:31:27;;;;;;;;;;;;;;;15.66;40.45;100721.44;4920807;28;98157;-68
2023/03/04 11:34:01;;;;;;;;;;;;;;;15.96;40.29;100717.44;4910448;28;98615;-68
2023/03/04 11:36:44;;;;;;;;;;;;;;;16.14;40.29;100718.47;4587261;28;9999687;-69
2023/03/04 11:39:19;;;;;;;;;;;;;;;15.99;40.59;100716.81;4414841;28;10099311;-67
2023/03/04 11:41:57;;;;;;;;;;;;;;;15.82;40.90;100720.09;4919402;28;100428;-68
2023/03/04 11:44:24;;;;;;;;;;;;;;;15.63;41.08;100714.63;4922758;28;112470;-68
2023/03/04 11:47:04;;;;;;;;;;;;;;;15.50;41.16;100709.16;4904346;28;98002;-67
2023/03/04 11:49:52;;;;;;;;;;;;;;;15.30;41.29;100712.97;4920294;28;98718;-67
2023/03/04 11:52:59;;;;;;;;;;;;;;;15.16;41.55;100707.44;4931649;28;98295;-67
2023/03/04 11:55:42;;;;;;;;;;;;;;;15.06;41.38;100700.25;4920697;28;98576;-68
2023/03/04 11:58:22;;;;;;;;;;;;;;;15.11;41.39;100700.16;4904607;28;98474;-67
2023/03/04 12:00:58;;;;;;;;;;;;;;;15.29;41.35;100703.19;4937571;28;98120;-67
2023/03/04 12:03:54;;;;;;;;;;;;;;;15.33;40.92;100702.31;4915164;28;99379;-68
2023/03/04 12:06:45;;;;;;;;;;;;;;;15.52;40.99;100696.88;4934506;28;98368;-68
2023/03/04 12:09:14;;;;;;;;;;;;;;;15.66;40.92;100686.91;4906977;28;99962;-67
2023/03/04 12:12:21;;;;;;;;;;;;;;;15.71;40.66;100689.53;4918327;28;98201;-67
2023/03/04 12:15:17;;;;;;;;;;;;;;;15.63;40.86;100686.66;4924642;28;98319;-68
2023/03/04 12:18:10;;;;;;;;;;;;;;;15.61;41.16;100688.88;4932239;28;98930;-67
2023/03/04 12:20:44;;;;;;;;;;;;;;;15.62;40.94;100680.41;4933741;28;97873;-68
2023/03/04 12:23:14;;;;;;;;;;;;;;;15.59;40.97;100681.00;4917706;28;98153;-67
2023/03/04 12:25:47;;;;;;;;;;;;;;;15.52;41.15;100685.19;4932482;28;98765;-69
2023/03/04 12:28:21;;;;;;;;;;;;;;;15.40;41.29;100685.66;4930883;28;98501;-68
2023/03/04 12:31:20;;;;;;;;;;;;;;;15.32;41.28;100686.31;4920350;28;99534;-67
2023/03/04 12:34:11;;;;;;;;;;;;;;;15.40;41.15;100674.78;4896812;28;98246;-67
2023/03/04 12:36:40;;;;;;;;;;;;;;;15.71;40.83;100672.44;4935226;28;98362;-68
2023/03/04 12:39:30;;;;;;;;;;;;;;;15.75;40.79;100678.88;4931701;28;99861;-68
2023/03/04 12:42:10;;;;;;;;;;;;;;;15.87;40.72;100678.41;4917910;28;98174;-69
2023/03/04 12:44:45;;;;;;;;;;;;;;;15.89;41.01;100670.78;4919970;28;98271;-69
2023/03/04 12:47:42;;;;;;;;;;;;;;;15.82;41.12;100675.81;4916593;28;97924;-67